createdAt,value
2023-01-18T00:01:35.821Z,6.93
2023-01-18T00:04:01.578Z,5.30
2023-01-18T00:06:27.365Z,6.63
2023-01-18T00:08:53.735Z,5.90
2023-01-18T00:11:19.490Z,5.57
2023-01-18T00:13:45.719Z,6.13
2023-01-18T00:16:13.040Z,6.27
2023-01-18T00:18:38.947Z,7.93
2023-01-18T00:21:05.951Z,5.37
2023-01-18T00:23:32.045Z,6.77
2023-01-18T00:26:01.434Z,5.17
2023-01-18T00:28:27.608Z,6.77
2023-01-18T00:30:53.502Z,6.37
2023-01-18T00:33:19.219Z,8.17
2023-01-18T00:35:53.734Z,6.23
2023-01-18T00:38:20.093Z,5.60
2023-01-18T00:40:45.859Z,5.33
2023-01-18T00:43:30.195Z,4.73
2023-01-18T00:45:55.986Z,4.63
2023-01-18T00:48:21.715Z,4.53
2023-01-18T00:50:47.414Z,5.03
2023-01-18T00:53:13.139Z,4.53
2023-01-18T00:55:38.921Z,4.13
2023-01-18T00:58:05.343Z,3.67
2023-01-18T01:00:31.966Z,3.97
2023-01-18T01:02:58.103Z,4.13
2023-01-18T01:05:43.652Z,5.37
2023-01-18T01:08:16.186Z,3.70
2023-01-18T01:10:42.735Z,3.80
2023-01-18T01:13:27.393Z,4.43
2023-01-18T01:16:11.556Z,3.90
2023-01-18T01:18:55.855Z,4.17
2023-01-18T01:21:40.146Z,4.33
2023-01-18T01:24:24.273Z,4.03
2023-01-18T01:26:49.984Z,3.57
2023-01-18T01:29:16.187Z,3.87
2023-01-18T01:31:41.914Z,3.77
2023-01-18T01:34:07.636Z,3.53
2023-01-18T01:36:33.426Z,4.03
2023-01-18T01:38:59.174Z,4.80
2023-01-18T01:41:26.589Z,4.93
2023-01-18T01:43:53.471Z,3.73
2023-01-18T01:46:29.690Z,3.80
2023-01-18T01:49:01.530Z,5.70
2023-01-18T01:51:27.546Z,4.37
2023-01-18T01:53:53.702Z,4.00
2023-01-18T01:56:19.822Z,4.23
2023-01-18T01:58:47.127Z,4.80
2023-01-18T02:01:13.044Z,4.83
2023-01-18T02:03:39.764Z,4.23
2023-01-18T02:06:13.061Z,4.77
2023-01-18T02:08:39.374Z,4.03
2023-01-18T02:11:05.091Z,4.30
2023-01-18T02:13:30.908Z,4.07
2023-01-18T02:16:15.420Z,4.53
2023-01-18T02:19:07.338Z,3.10
2023-01-18T02:21:38.559Z,3.47
2023-01-18T02:24:22.701Z,3.87
2023-01-18T02:26:53.105Z,3.23
2023-01-18T02:29:21.637Z,3.72
2023-01-18T02:31:59.442Z,4.93
2023-01-18T02:34:37.524Z,3.40
2023-01-18T02:37:14.788Z,4.60
2023-01-18T02:39:58.802Z,3.73
2023-01-18T02:42:45.305Z,4.50
2023-01-18T02:45:50.710Z,3.53
2023-01-18T02:48:17.979Z,3.47
2023-01-18T02:50:43.764Z,4.23
2023-01-18T02:53:12.093Z,3.57
2023-01-18T02:55:37.775Z,3.30
2023-01-18T02:58:06.681Z,5.20
2023-01-18T03:00:33.598Z,4.20
2023-01-18T03:03:00.296Z,3.37
2023-01-18T03:05:27.208Z,3.37
2023-01-18T03:07:55.248Z,3.93
2023-01-18T03:10:23.446Z,3.93
2023-01-18T03:12:55.795Z,4.07
2023-01-18T03:15:24.521Z,3.63
2023-01-18T03:17:51.649Z,3.90
2023-01-18T03:20:25.552Z,3.13
2023-01-18T03:23:09.722Z,3.60
2023-01-18T03:25:38.224Z,4.00
2023-01-18T03:28:36.634Z,4.13
2023-01-18T03:31:24.013Z,4.00
2023-01-18T03:33:53.098Z,3.30
2023-01-18T03:36:21.246Z,3.90
2023-01-18T03:38:48.309Z,3.87
2023-01-18T03:41:15.733Z,4.90
2023-01-18T03:43:41.940Z,4.23
2023-01-18T03:46:08.223Z,4.73
2023-01-18T03:48:35.874Z,3.13
2023-01-18T03:51:14.910Z,3.80
2023-01-18T03:53:44.736Z,3.70
2023-01-18T03:56:28.605Z,3.25
2023-01-18T03:58:56.769Z,3.40
2023-01-18T04:01:22.965Z,4.17
2023-01-18T04:03:48.881Z,3.03
2023-01-18T04:06:14.670Z,3.53
2023-01-18T04:08:40.709Z,3.60
2023-01-18T04:11:06.569Z,3.90
2023-01-18T04:13:32.392Z,3.90
2023-01-18T04:15:58.195Z,3.40
2023-01-18T04:18:23.992Z,4.17
2023-01-18T04:20:49.768Z,3.57
2023-01-18T04:23:15.582Z,3.40
2023-01-18T04:25:45.177Z,3.63
2023-01-18T04:28:10.897Z,3.63
2023-01-18T04:30:36.598Z,3.80
2023-01-18T04:33:02.329Z,3.77
2023-01-18T04:35:28.091Z,3.60
2023-01-18T04:37:53.835Z,3.60
2023-01-18T04:40:19.553Z,4.10
2023-01-18T04:42:50.761Z,2.80
2023-01-18T04:45:17.585Z,3.83
2023-01-18T04:47:44.411Z,3.53
2023-01-18T04:50:10.556Z,4.07
2023-01-18T04:52:36.268Z,4.10
2023-01-18T04:55:02.002Z,3.33
2023-01-18T04:57:27.766Z,4.37
2023-01-18T04:59:53.467Z,5.00
2023-01-18T05:02:19.456Z,3.80
2023-01-18T05:04:45.484Z,4.10
2023-01-18T05:07:11.552Z,3.50
2023-01-18T05:09:37.261Z,5.30
2023-01-18T05:12:03.032Z,4.13
2023-01-18T05:14:28.767Z,4.10
2023-01-18T05:16:54.544Z,3.73
2023-01-18T05:19:20.336Z,3.80
2023-01-18T05:21:46.132Z,3.70
2023-01-18T05:24:11.903Z,4.87
2023-01-18T05:26:37.718Z,3.93
2023-01-18T05:29:03.600Z,5.00
2023-01-18T05:31:29.437Z,3.43
2023-01-18T05:33:56.165Z,4.03
2023-01-18T05:36:34.307Z,3.67
2023-01-18T05:39:00.353Z,3.47
2023-01-18T05:41:27.032Z,3.77
2023-01-18T05:43:52.793Z,3.57
2023-01-18T05:46:18.768Z,4.43
2023-01-18T05:48:44.596Z,3.97
2023-01-18T05:51:11.337Z,4.27
2023-01-18T05:53:37.391Z,5.10
2023-01-18T05:56:04.658Z,5.23
2023-01-18T05:58:30.577Z,4.97
2023-01-18T06:00:56.611Z,4.43
2023-01-18T06:03:23.121Z,5.37
2023-01-18T06:05:50.668Z,5.00
2023-01-18T06:08:18.238Z,4.67
2023-01-18T06:10:44.083Z,4.90
2023-01-18T06:13:10.152Z,5.40
2023-01-18T06:15:36.488Z,5.20
2023-01-18T06:18:02.574Z,4.27
2023-01-18T06:20:30.501Z,4.97
2023-01-18T06:22:58.563Z,3.87
2023-01-18T06:25:26.097Z,4.43
2023-01-18T06:27:52.391Z,4.57
2023-01-18T06:30:18.968Z,5.50
2023-01-18T06:32:44.731Z,2.80
2023-01-18T06:35:10.932Z,3.87
2023-01-18T06:37:46.561Z,4.50
2023-01-18T06:40:12.561Z,3.50
2023-01-18T06:42:38.985Z,4.37
2023-01-18T06:45:05.557Z,4.27
2023-01-18T06:47:31.535Z,3.67
2023-01-18T06:49:58.429Z,2.80
2023-01-18T06:52:24.394Z,3.37
2023-01-18T06:54:50.356Z,4.07
2023-01-18T06:57:16.139Z,4.13
2023-01-18T06:59:41.969Z,5.03
2023-01-18T07:02:10.983Z,4.33
2023-01-18T07:04:43.375Z,3.60
2023-01-18T07:07:09.332Z,3.43
2023-01-18T07:09:35.162Z,3.77
2023-01-18T07:12:00.905Z,3.70
2023-01-18T07:14:27.143Z,4.13
2023-01-18T07:16:53.150Z,3.67
2023-01-18T07:19:19.199Z,4.60
2023-01-18T07:21:45.156Z,4.77
2023-01-18T07:24:11.129Z,4.47
2023-01-18T07:26:38.502Z,3.67
2023-01-18T07:29:04.513Z,4.57
2023-01-18T07:31:30.474Z,4.40
2023-01-18T07:33:56.539Z,3.07
2023-01-18T07:36:32.006Z,3.83
2023-01-18T07:38:57.913Z,3.83
2023-01-18T07:41:25.553Z,4.77
2023-01-18T07:43:51.779Z,3.63
2023-01-18T07:49:02.469Z,3.97
2023-01-18T07:51:33.799Z,3.77
2023-01-18T07:53:59.679Z,3.37
2023-01-18T07:56:26.614Z,4.07
2023-01-18T07:58:53.046Z,3.90
2023-01-18T08:01:20.966Z,4.00
2023-01-18T08:03:47.586Z,4.80
2023-01-18T08:06:16.233Z,3.83
2023-01-18T08:08:42.499Z,3.77
2023-01-18T08:11:09.246Z,3.80
2023-01-18T08:13:35.266Z,4.17
2023-01-18T08:16:01.978Z,3.53
2023-01-18T08:18:27.955Z,3.93
2023-01-18T08:20:55.140Z,4.40
2023-01-18T08:23:21.150Z,4.00
2023-01-18T08:25:47.956Z,4.30
2023-01-18T08:28:13.861Z,5.00
2023-01-18T08:30:44.517Z,3.67
2023-01-18T08:35:40.790Z,3.93
2023-01-18T08:38:06.776Z,3.53
2023-01-18T08:40:32.909Z,4.23
2023-01-18T08:43:00.366Z,3.95
2023-01-18T08:45:26.984Z,3.88
2023-01-18T08:47:57.034Z,3.90
2023-01-18T08:50:23.314Z,4.10
2023-01-18T08:53:03.076Z,4.60
2023-01-18T08:55:29.363Z,3.88
2023-01-18T08:57:57.058Z,4.22
2023-01-18T09:00:27.100Z,3.83
2023-01-18T09:02:53.070Z,4.03
2023-01-18T09:05:18.935Z,5.15
2023-01-18T09:07:45.701Z,4.45
2023-01-18T09:10:12.198Z,4.18
2023-01-18T09:12:38.151Z,4.43
2023-01-18T09:15:05.008Z,4.15
2023-01-18T09:17:30.956Z,3.83
2023-01-18T09:19:57.222Z,4.00
2023-01-18T09:22:26.322Z,3.90
2023-01-18T09:24:52.613Z,3.97
2023-01-18T09:27:18.417Z,4.30
2023-01-18T09:29:51.499Z,4.25
2023-01-18T09:32:19.664Z,4.30
2023-01-18T09:34:48.693Z,4.22
2023-01-18T09:37:14.545Z,4.25
2023-01-18T09:39:51.253Z,4.15
2023-01-18T09:42:22.971Z,3.88
2023-01-18T09:44:51.372Z,4.20
2023-01-18T09:47:20.176Z,5.05
2023-01-18T09:49:54.390Z,4.00
2023-01-18T09:52:24.597Z,3.85
2023-01-18T09:54:54.188Z,4.15
2023-01-18T09:57:29.084Z,4.50
2023-01-18T09:59:57.089Z,3.72
2023-01-18T10:02:42.975Z,4.03
2023-01-18T10:05:09.052Z,6.38
2023-01-18T10:07:50.069Z,4.60
2023-01-18T10:10:18.475Z,4.47
2023-01-18T10:12:52.870Z,4.00
2023-01-18T10:15:20.104Z,6.72
2023-01-18T10:17:46.361Z,3.55
2023-01-18T10:20:21.264Z,3.50
2023-01-18T10:22:52.619Z,4.43
2023-01-18T10:25:32.816Z,4.70
2023-01-18T10:28:05.011Z,3.95
2023-01-18T10:30:45.667Z,3.70
2023-01-18T10:33:23.395Z,4.18
2023-01-18T10:36:13.152Z,3.58
2023-01-18T10:38:40.643Z,3.88
2023-01-18T10:41:14.517Z,4.00
2023-01-18T10:43:40.479Z,4.70
2023-01-18T10:46:15.165Z,3.95
2023-01-18T10:48:44.651Z,3.28
2023-01-18T10:51:23.195Z,2.97
2023-01-18T10:53:49.126Z,3.30
2023-01-18T10:56:20.525Z,3.08
2023-01-18T10:58:49.599Z,3.10
2023-01-18T11:01:17.397Z,3.08
2023-01-18T11:03:46.704Z,3.13
2023-01-18T11:06:16.348Z,2.67
2023-01-18T11:08:42.944Z,3.38
2023-01-18T11:11:46.082Z,3.10
2023-01-18T11:14:32.154Z,3.90
2023-01-18T11:16:59.112Z,3.35
2023-01-18T11:19:26.357Z,3.58
2023-01-18T11:21:53.340Z,3.70
2023-01-18T11:24:24.362Z,3.50
2023-01-18T11:27:11.155Z,5.22
2023-01-18T11:29:40.193Z,4.53
2023-01-18T11:32:14.236Z,4.60
2023-01-18T11:34:43.105Z,5.00
2023-01-18T11:37:28.074Z,5.03
2023-01-18T11:39:54.533Z,4.20
2023-01-18T11:42:22.537Z,5.32
2023-01-18T11:44:57.224Z,5.45
2023-01-18T11:47:26.767Z,4.97
2023-01-18T11:50:10.326Z,3.85
2023-01-18T11:52:50.290Z,4.05
2023-01-18T11:55:23.356Z,4.32
2023-01-18T11:57:50.698Z,4.53
2023-01-18T12:00:19.958Z,4.35
2023-01-18T12:02:58.863Z,4.30
2023-01-18T12:05:37.587Z,3.90
2023-01-18T12:08:12.478Z,4.47
2023-01-18T12:10:59.277Z,4.57
2023-01-18T12:13:28.321Z,4.35
2023-01-18T12:16:00.671Z,4.35
2023-01-18T12:18:26.998Z,4.10
2023-01-18T12:20:57.793Z,5.20
2023-01-18T12:25:50.857Z,4.40
2023-01-18T12:42:07.049Z,4.75
2023-01-18T12:44:46.308Z,5.18
2023-01-18T12:47:26.375Z,5.25
2023-01-18T12:52:45.363Z,6.20
2023-01-18T12:55:17.909Z,5.75
2023-01-18T12:57:46.458Z,4.47
2023-01-18T13:00:18.808Z,5.85
2023-01-18T13:05:42.310Z,4.70
2023-01-18T13:08:23.043Z,5.22
2023-01-18T13:10:51.455Z,5.63
2023-01-18T13:13:21.627Z,5.72
2023-01-18T13:15:53.487Z,4.93
2023-01-18T13:18:25.628Z,6.20
2023-01-18T13:21:02.102Z,5.60
2023-01-18T13:26:41.532Z,6.25
2023-01-18T13:34:47.965Z,5.05
2023-01-18T13:37:36.051Z,6.60
2023-01-18T13:42:57.613Z,5.05
2023-01-18T13:45:25.831Z,5.78
2023-01-18T13:47:55.203Z,6.00
2023-01-18T13:50:37.912Z,6.93
2023-01-18T13:55:59.958Z,5.35
2023-01-18T13:58:44.932Z,4.85
2023-01-18T14:01:22.027Z,5.22
2023-01-18T14:06:36.359Z,4.88
2023-01-18T14:09:10.538Z,5.13
2023-01-18T14:11:41.261Z,5.07
2023-01-18T14:19:19.363Z,4.50
2023-01-18T14:21:59.002Z,4.72
2023-01-18T15:11:18.801Z,5.68
2023-01-18T15:19:14.097Z,6.40
2023-01-18T15:27:03.204Z,6.82
2023-01-18T15:34:55.282Z,6.15
2023-01-18T15:37:41.811Z,7.35
2023-01-18T15:40:18.005Z,6.35
2023-01-18T15:45:35.393Z,5.88
2023-01-18T15:48:07.614Z,5.82
2023-01-18T15:50:45.451Z,5.78
2023-01-18T15:56:23.881Z,5.83
2023-01-18T15:58:52.981Z,5.85
2023-01-18T16:01:20.680Z,6.03
2023-01-18T16:03:50.104Z,6.40
2023-01-18T16:07:15.119Z,6.60
2023-01-18T16:09:42.117Z,4.75
2023-01-18T16:12:08.166Z,6.47
2023-01-18T16:14:35.212Z,6.13
2023-01-18T16:17:06.720Z,6.53
2023-01-18T16:19:43.058Z,6.30
2023-01-18T16:22:21.466Z,6.05
2023-01-18T16:25:10.274Z,6.38
2023-01-18T16:28:09.160Z,7.72
2023-01-18T16:30:37.302Z,6.80
2023-01-18T16:33:11.694Z,6.30
2023-01-18T16:35:40.415Z,8.17
2023-01-18T16:38:15.537Z,6.87
2023-01-18T16:40:45.091Z,8.00
2023-01-18T16:43:17.237Z,7.10
2023-01-18T16:45:43.486Z,7.60
2023-01-18T16:51:00.645Z,7.57
2023-01-18T16:53:27.397Z,6.30
2023-01-18T16:55:56.239Z,8.30
2023-01-18T16:58:32.736Z,8.23
2023-01-18T17:03:46.945Z,8.10
2023-01-18T17:06:20.759Z,7.73
2023-01-18T17:08:47.932Z,7.30
2023-01-18T17:11:25.277Z,7.43
2023-01-18T17:16:31.808Z,8.45
2023-01-18T17:18:57.732Z,7.50
2023-01-18T17:21:23.811Z,9.10
2023-01-18T17:23:51.346Z,8.37
2023-01-18T17:26:18.047Z,8.07
2023-01-18T17:28:44.717Z,7.77
2023-01-18T17:31:10.857Z,8.07
2023-01-18T17:33:39.972Z,8.33
2023-01-18T17:36:18.437Z,8.60
2023-01-18T17:38:44.809Z,8.50
2023-01-18T17:41:22.933Z,8.77
2023-01-18T17:43:53.093Z,8.23
2023-01-18T17:46:19.368Z,9.13
2023-01-18T17:48:45.414Z,9.57
2023-01-18T17:51:12.121Z,9.33
2023-01-18T17:53:39.792Z,11.27
2023-01-18T17:56:07.611Z,14.47
2023-01-18T17:58:33.577Z,10.67
2023-01-18T18:01:10.867Z,11.00
2023-01-18T18:03:37.931Z,11.77
2023-01-18T18:06:31.521Z,9.80
2023-01-18T18:08:57.943Z,11.10
2023-01-18T18:16:32.707Z,10.07
2023-01-18T18:18:59.356Z,9.73
2023-01-18T18:21:27.426Z,9.73
2023-01-18T18:23:53.501Z,10.20
2023-01-18T18:26:23.059Z,10.27
2023-01-18T18:28:50.837Z,12.80
2023-01-18T18:31:16.942Z,9.57
2023-01-18T18:33:43.003Z,9.53
2023-01-18T18:36:08.945Z,10.07
2023-01-18T18:38:34.779Z,11.17
2023-01-18T18:41:05.030Z,10.70
2023-01-18T18:43:32.614Z,10.15
2023-01-18T18:45:58.659Z,9.23
2023-01-18T18:48:25.441Z,9.07
2023-01-18T18:50:51.786Z,9.40
2023-01-18T18:53:19.553Z,14.90
2023-01-18T18:55:47.252Z,18.63
2023-01-18T18:58:13.242Z,19.07
2023-01-18T19:00:39.104Z,19.83
2023-01-18T19:03:06.171Z,18.20
2023-01-18T19:05:33.052Z,14.17
2023-01-18T19:07:59.340Z,13.57
2023-01-18T19:10:30.519Z,12.90
2023-01-18T19:12:56.909Z,11.30
2023-01-18T19:15:23.363Z,13.27
2023-01-18T19:17:49.718Z,11.83
2023-01-18T19:20:18.980Z,11.53
2023-01-18T19:22:48.084Z,13.17
2023-01-18T19:25:14.195Z,12.57
2023-01-18T19:27:40.422Z,12.50
2023-01-18T19:30:12.236Z,13.37
2023-01-18T19:32:39.131Z,11.73
2023-01-18T19:35:05.305Z,12.13
2023-01-18T19:37:34.416Z,11.97
2023-01-18T19:40:00.502Z,12.33
2023-01-18T19:42:26.412Z,12.63
2023-01-18T19:44:59.229Z,12.37
2023-01-18T19:47:25.407Z,12.43
2023-01-18T19:49:53.029Z,13.60
2023-01-18T19:52:18.842Z,13.43
2023-01-18T19:54:45.042Z,13.57
2023-01-18T19:57:10.816Z,13.43
2023-01-18T19:59:36.770Z,12.83
2023-01-18T20:02:07.248Z,12.50
2023-01-18T20:07:08.377Z,12.07
2023-01-18T20:09:42.803Z,16.17
2023-01-18T20:12:11.898Z,23.03
2023-01-18T20:14:41.422Z,24.07
2023-01-18T20:17:11.721Z,24.50
2023-01-18T20:19:39.218Z,23.05
2023-01-18T20:22:05.945Z,21.13
2023-01-18T20:24:31.908Z,18.03
2023-01-18T20:27:14.542Z,16.27
2023-01-18T20:29:41.466Z,15.57
2023-01-18T20:32:15.564Z,14.13
2023-01-18T20:34:44.002Z,13.30
2023-01-18T20:37:11.349Z,13.97
2023-01-18T20:39:41.427Z,13.40
2023-01-18T20:42:07.706Z,11.45
2023-01-18T20:44:36.152Z,11.70
2023-01-18T20:47:06.887Z,12.80
2023-01-18T20:49:38.701Z,14.13
2023-01-18T20:52:06.059Z,12.83
2023-01-18T20:54:32.545Z,14.07
2023-01-18T20:57:00.622Z,13.00
2023-01-18T20:59:27.767Z,11.23
2023-01-18T21:01:53.743Z,12.03
2023-01-18T21:04:20.588Z,14.97
2023-01-18T21:07:01.572Z,11.37
2023-01-18T21:09:28.122Z,12.40
2023-01-18T21:11:54.000Z,13.57
2023-01-18T21:14:20.358Z,12.33
2023-01-18T21:16:46.419Z,12.97
2023-01-18T21:19:13.072Z,11.83
2023-01-18T21:21:39.006Z,14.30
2023-01-18T21:24:04.871Z,11.63
2023-01-18T21:26:30.671Z,10.10
2023-01-18T21:28:56.815Z,11.97
2023-01-18T21:31:22.835Z,12.00
2023-01-18T21:33:48.946Z,11.57
2023-01-18T21:36:19.595Z,11.03
2023-01-18T21:41:29.981Z,9.83
2023-01-18T21:44:14.352Z,9.47
2023-01-18T21:46:46.272Z,9.47
2023-01-18T21:49:47.237Z,11.10
2023-01-18T21:52:36.490Z,9.80
2023-01-18T21:55:02.309Z,10.73
2023-01-18T21:57:28.094Z,12.07
2023-01-18T21:59:53.868Z,11.33
2023-01-18T22:02:21.317Z,10.87
2023-01-18T22:04:55.935Z,10.23
2023-01-18T22:07:21.867Z,11.63
2023-01-18T22:10:03.126Z,11.63
2023-01-18T22:12:31.083Z,11.83
2023-01-18T22:14:58.850Z,11.77
2023-01-18T22:17:24.964Z,11.37
2023-01-18T22:19:51.445Z,11.60
2023-01-18T22:22:17.217Z,10.90
2023-01-18T22:24:43.328Z,10.93
2023-01-18T22:27:09.099Z,9.93
2023-01-18T22:29:35.056Z,10.23
2023-01-18T22:32:00.913Z,9.63
2023-01-18T22:34:26.958Z,10.00
2023-01-18T22:37:05.286Z,12.27
2023-01-18T22:39:31.082Z,9.50
2023-01-18T22:41:56.998Z,8.77
2023-01-18T22:44:22.863Z,7.87
2023-01-18T22:46:49.309Z,8.60
2023-01-18T22:49:15.013Z,8.10
2023-01-18T22:51:40.800Z,10.07
2023-01-18T22:54:06.783Z,8.77
2023-01-18T22:56:33.670Z,8.70
2023-01-18T22:58:59.817Z,8.27
2023-01-18T23:01:27.197Z,10.27
2023-01-18T23:03:55.391Z,11.30
2023-01-18T23:06:28.375Z,11.53
2023-01-18T23:08:54.753Z,12.90
2023-01-18T23:11:21.988Z,10.60
2023-01-18T23:14:10.681Z,8.37
2023-01-18T23:16:54.987Z,9.57
2023-01-18T23:19:21.139Z,7.07
2023-01-18T23:21:46.936Z,6.93
2023-01-18T23:24:13.070Z,8.83
2023-01-18T23:26:38.803Z,7.23
2023-01-18T23:29:04.531Z,7.67
2023-01-18T23:31:30.410Z,7.43
2023-01-18T23:33:56.148Z,6.70
2023-01-18T23:36:22.969Z,6.97
2023-01-18T23:39:06.973Z,6.80
2023-01-18T23:41:51.222Z,7.30
2023-01-18T23:44:35.262Z,8.07
2023-01-18T23:47:19.397Z,7.07
2023-01-18T23:50:03.519Z,7.47
2023-01-18T23:52:47.828Z,7.63
2023-01-18T23:55:13.584Z,7.17
2023-01-18T23:57:39.301Z,7.47
